sensor_id;sensor_type;location;lat;lon;timestamp;pressure;altitude;pressure_sealevel;temperature;humidity
68594;BME280;55563;52.416;13.548;2023-02-08T00:01:34;103847.03;;;-5.75;100.00
68594;BME280;55563;52.416;13.548;2023-02-08T00:03:36;103848.91;;;-5.79;100.00
68594;BME280;55563;52.416;13.548;2023-02-08T00:05:37;103843.25;;;-5.85;100.00
68594;BME280;55563;52.416;13.548;2023-02-08T00:07:38;103840.84;;;-5.88;100.00
68594;BME280;55563;52.416;13.548;2023-02-08T00:09:38;103838.13;;;-5.85;100.00
68594;BME280;55563;52.416;13.548;2023-02-08T00:11:39;103833.41;;;-5.76;100.00
68594;BME280;55563;52.416;13.548;2023-02-08T00:13:40;103831.97;;;-5.64;100.00
68594;BME280;55563;52.416;13.548;2023-02-08T00:15:42;103835.22;;;-5.60;100.00
68594;BME280;55563;52.416;13.548;2023-02-08T00:17:43;103835.59;;;-5.51;100.00
68594;BME280;55563;52.416;13.548;2023-02-08T00:19:43;103832.13;;;-5.50;100.00
68594;BME280;55563;52.416;13.548;2023-02-08T00:21:48;103832.13;;;-5.50;100.00
68594;BME280;55563;52.416;13.548;2023-02-08T00:23:48;103825.50;;;-5.54;100.00
68594;BME280;55563;52.416;13.548;2023-02-08T00:25:49;103827.41;;;-5.57;100.00
68594;BME280;55563;52.416;13.548;2023-02-08T00:27:50;103828.84;;;-5.52;100.00
68594;BME280;55563;52.416;13.548;2023-02-08T00:29:51;103828.22;;;-5.57;100.00
68594;BME280;55563;52.416;13.548;2023-02-08T00:31:51;103826.56;;;-5.58;100.00
68594;BME280;55563;52.416;13.548;2023-02-08T00:33:52;103828.88;;;-5.71;100.00
68594;BME280;55563;52.416;13.548;2023-02-08T00:37:55;103830.41;;;-5.66;100.00
68594;BME280;55563;52.416;13.548;2023-02-08T00:39:56;103833.31;;;-5.74;100.00
68594;BME280;55563;52.416;13.548;2023-02-08T00:42:00;103832.19;;;-5.68;100.00
68594;BME280;55563;52.416;13.548;2023-02-08T00:44:01;103827.63;;;-5.62;100.00
68594;BME280;55563;52.416;13.548;2023-02-08T00:46:03;103828.34;;;-5.60;100.00
68594;BME280;55563;52.416;13.548;2023-02-08T00:48:04;103828.69;;;-5.66;100.00
68594;BME280;55563;52.416;13.548;2023-02-08T00:50:09;103833.13;;;-5.87;100.00
68594;BME280;55563;52.416;13.548;2023-02-08T00:52:10;103832.09;;;-6.01;100.00
68594;BME280;55563;52.416;13.548;2023-02-08T00:54:15;103832.44;;;-6.09;100.00
68594;BME280;55563;52.416;13.548;2023-02-08T00:56:17;103840.00;;;-6.06;100.00
68594;BME280;55563;52.416;13.548;2023-02-08T00:58:17;103846.00;;;-6.07;100.00
68594;BME280;55563;52.416;13.548;2023-02-08T01:00:18;103826.31;;;-6.05;100.00
68594;BME280;55563;52.416;13.548;2023-02-08T01:02:19;103833.25;;;-5.90;100.00
68594;BME280;55563;52.416;13.548;2023-02-08T01:04:20;103835.78;;;-5.90;100.00
68594;BME280;55563;52.416;13.548;2023-02-08T01:06:21;103840.91;;;-5.90;100.00
68594;BME280;55563;52.416;13.548;2023-02-08T01:08:22;103836.47;;;-5.86;100.00
68594;BME280;55563;52.416;13.548;2023-02-08T01:10:23;103833.91;;;-5.86;100.00
68594;BME280;55563;52.416;13.548;2023-02-08T01:12:24;103835.50;;;-5.84;100.00
68594;BME280;55563;52.416;13.548;2023-02-08T01:14:25;103844.31;;;-5.89;100.00
68594;BME280;55563;52.416;13.548;2023-02-08T01:16:29;103846.41;;;-5.97;100.00
68594;BME280;55563;52.416;13.548;2023-02-08T01:18:31;103848.41;;;-6.04;100.00
68594;BME280;55563;52.416;13.548;2023-02-08T01:20:34;103843.03;;;-5.98;100.00
68594;BME280;55563;52.416;13.548;2023-02-08T01:22:37;103845.47;;;-5.95;100.00
68594;BME280;55563;52.416;13.548;2023-02-08T01:24:38;103841.34;;;-5.99;100.00
68594;BME280;55563;52.416;13.548;2023-02-08T01:26:39;103848.41;;;-6.04;100.00
68594;BME280;55563;52.416;13.548;2023-02-08T01:28:40;103850.44;;;-6.10;100.00
68594;BME280;55563;52.416;13.548;2023-02-08T01:30:42;103838.59;;;-6.13;100.00
68594;BME280;55563;52.416;13.548;2023-02-08T01:32:43;103848.41;;;-6.04;100.00
68594;BME280;55563;52.416;13.548;2023-02-08T01:34:44;103840.00;;;-6.06;100.00
68594;BME280;55563;52.416;13.548;2023-02-08T01:36:45;103852.66;;;-6.22;100.00
68594;BME280;55563;52.416;13.548;2023-02-08T01:38:46;103854.19;;;-6.18;100.00
68594;BME280;55563;52.416;13.548;2023-02-08T01:40:47;103844.78;;;-6.17;100.00
68594;BME280;55563;52.416;13.548;2023-02-08T01:42:48;103851.81;;;-6.22;100.00
68594;BME280;55563;52.416;13.548;2023-02-08T01:47:29;103849.63;;;-6.30;100.00
68594;BME280;55563;52.416;13.548;2023-02-08T01:49:31;103847.06;;;-6.30;100.00
68594;BME280;55563;52.416;13.548;2023-02-08T01:51:37;103844.56;;;-6.31;100.00
68594;BME280;55563;52.416;13.548;2023-02-08T01:53:38;103852.19;;;-6.30;100.00
68594;BME280;55563;52.416;13.548;2023-02-08T01:55:46;103845.88;;;-6.41;100.00
68594;BME280;55563;52.416;13.548;2023-02-08T01:57:51;103845.00;;;-6.40;100.00
68594;BME280;55563;52.416;13.548;2023-02-08T02:00:00;103842.00;;;-6.31;100.00
68594;BME280;55563;52.416;13.548;2023-02-08T02:02:26;103851.97;;;-6.25;100.00
68594;BME280;55563;52.416;13.548;2023-02-08T02:04:27;103846.38;;;-6.33;100.00
68594;BME280;55563;52.416;13.548;2023-02-08T02:06:39;103847.06;;;-6.30;100.00
68594;BME280;55563;52.416;13.548;2023-02-08T02:08:54;103845.25;;;-6.28;100.00
68594;BME280;55563;52.416;13.548;2023-02-08T02:10:57;103839.31;;;-6.28;100.00
68594;BME280;55563;52.416;13.548;2023-02-08T02:13:05;103840.06;;;-6.26;100.00
68594;BME280;55563;52.416;13.548;2023-02-08T02:15:07;103840.69;;;-6.21;100.00
68594;BME280;55563;52.416;13.548;2023-02-08T02:17:10;103843.41;;;-6.24;100.00
68594;BME280;55563;52.416;13.548;2023-02-08T02:19:30;103844.25;;;-6.24;100.00
68594;BME280;55563;52.416;13.548;2023-02-08T02:34:12;103842.41;;;-6.22;100.00
68594;BME280;55563;52.416;13.548;2023-02-08T02:41:51;103847.69;;;-6.25;100.00
68594;BME280;55563;52.416;13.548;2023-02-08T02:44:21;103846.28;;;-6.13;100.00
68594;BME280;55563;52.416;13.548;2023-02-08T02:46:37;103845.44;;;-6.13;100.00
68594;BME280;55563;52.416;13.548;2023-02-08T02:49:20;103840.34;;;-6.13;100.00
68594;BME280;55563;52.416;13.548;2023-02-08T02:51:11;103839.31;;;-6.28;100.00
68594;BME280;55563;52.416;13.548;2023-02-08T02:53:23;103841.06;;;-6.29;100.00
68594;BME280;55563;52.416;13.548;2023-02-08T02:55:32;103834.34;;;-6.31;100.00
68594;BME280;55563;52.416;13.548;2023-02-08T02:57:36;103844.63;;;-6.33;100.00
68594;BME280;55563;52.416;13.548;2023-02-08T02:59:38;103834.38;;;-6.33;100.00
68594;BME280;55563;52.416;13.548;2023-02-08T03:01:39;103838.88;;;-6.38;100.00
68594;BME280;55563;52.416;13.548;2023-02-08T03:03:41;103843.94;;;-6.36;100.00
68594;BME280;55563;52.416;13.548;2023-02-08T03:05:42;103841.94;;;-6.30;100.00
68594;BME280;55563;52.416;13.548;2023-02-08T03:13:12;103847.41;;;-6.37;100.00
68594;BME280;55563;52.416;13.548;2023-02-08T03:18:40;103842.63;;;-6.45;100.00
68594;BME280;55563;52.416;13.548;2023-02-08T03:20:30;103846.56;;;-6.38;100.00
68594;BME280;55563;52.416;13.548;2023-02-08T03:23:00;103845.75;;;-6.38;100.00
68594;BME280;55563;52.416;13.548;2023-02-08T03:25:10;103841.38;;;-6.36;100.00
68594;BME280;55563;52.416;13.548;2023-02-08T03:27:27;103843.19;;;-6.38;100.00
68594;BME280;55563;52.416;13.548;2023-02-08T03:29:39;103838.81;;;-6.55;100.00
68594;BME280;55563;52.416;13.548;2023-02-08T03:32:01;103843.44;;;-6.63;100.00
68594;BME280;55563;52.416;13.548;2023-02-08T03:36:22;103846.13;;;-6.66;100.00
68594;BME280;55563;52.416;13.548;2023-02-08T03:38:28;103839.09;;;-6.61;100.00
68594;BME280;55563;52.416;13.548;2023-02-08T03:40:36;103838.59;;;-6.69;100.00
68594;BME280;55563;52.416;13.548;2023-02-08T03:43:19;103841.84;;;-6.66;100.00
68594;BME280;55563;52.416;13.548;2023-02-08T03:45:22;103842.13;;;-6.72;100.00
68594;BME280;55563;52.416;13.548;2023-02-08T03:47:27;103841.31;;;-6.72;100.00
68594;BME280;55563;52.416;13.548;2023-02-08T03:49:33;103840.47;;;-6.73;100.00
68594;BME280;55563;52.416;13.548;2023-02-08T03:51:36;103853.25;;;-6.73;100.00
68594;BME280;55563;52.416;13.548;2023-02-08T03:53:40;103844.81;;;-6.75;100.00
68594;BME280;55563;52.416;13.548;2023-02-08T03:55:44;103839.44;;;-6.69;100.00
68594;BME280;55563;52.416;13.548;2023-02-08T03:58:04;103843.56;;;-6.66;100.00
68594;BME280;55563;52.416;13.548;2023-02-08T04:00:11;103845.38;;;-6.68;100.00
68594;BME280;55563;52.416;13.548;2023-02-08T04:02:18;103842.03;;;-6.70;100.00
68594;BME280;55563;52.416;13.548;2023-02-08T04:04:20;103841.22;;;-6.71;100.00
68594;BME280;55563;52.416;13.548;2023-02-08T04:06:22;103847.50;;;-6.78;100.00
68594;BME280;55563;52.416;13.548;2023-02-08T04:08:23;103842.25;;;-6.75;100.00
68594;BME280;55563;52.416;13.548;2023-02-08T04:10:24;103839.69;;;-6.75;100.00
68594;BME280;55563;52.416;13.548;2023-02-08T04:12:25;103848.97;;;-6.72;100.00
68594;BME280;55563;52.416;13.548;2023-02-08T04:15:26;103842.41;;;-6.78;100.00
68594;BME280;55563;52.416;13.548;2023-02-08T04:17:29;103842.44;;;-6.79;100.00
68594;BME280;55563;52.416;13.548;2023-02-08T04:19:32;103832.16;;;-6.78;100.00
68594;BME280;55563;52.416;13.548;2023-02-08T04:21:33;103849.22;;;-6.78;100.00
68594;BME280;55563;52.416;13.548;2023-02-08T04:23:34;103842.41;;;-6.78;100.00
68594;BME280;55563;52.416;13.548;2023-02-08T04:25:35;103838.94;;;-6.77;100.00
68594;BME280;55563;52.416;13.548;2023-02-08T04:27:36;103838.03;;;-6.76;100.00
68594;BME280;55563;52.416;13.548;2023-02-08T04:29:37;103844.06;;;-6.77;100.00
68594;BME280;55563;52.416;13.548;2023-02-08T04:31:38;103842.41;;;-6.78;100.00
68594;BME280;55563;52.416;13.548;2023-02-08T04:33:38;103844.75;;;-6.73;100.00
68594;BME280;55563;52.416;13.548;2023-02-08T04:35:41;103841.84;;;-6.66;100.00
68594;BME280;55563;52.416;13.548;2023-02-08T04:37:41;103840.22;;;-6.67;100.00
68594;BME280;55563;52.416;13.548;2023-02-08T04:39:42;103836.94;;;-6.70;100.00
68594;BME280;55563;52.416;13.548;2023-02-08T04:41:42;103838.75;;;-6.72;100.00
68594;BME280;55563;52.416;13.548;2023-02-08T04:43:43;103835.22;;;-6.70;100.00
68594;BME280;55563;52.416;13.548;2023-02-08T04:45:44;103840.28;;;-6.68;100.00
68594;BME280;55563;52.416;13.548;2023-02-08T04:47:44;103844.81;;;-6.75;100.00
68594;BME280;55563;52.416;13.548;2023-02-08T04:49:45;103834.53;;;-6.73;100.00
68594;BME280;55563;52.416;13.548;2023-02-08T04:51:46;103838.03;;;-6.76;100.00
68594;BME280;55563;52.416;13.548;2023-02-08T04:53:47;103838.94;;;-6.77;100.00
68594;BME280;55563;52.416;13.548;2023-02-08T04:55:47;103833.88;;;-6.78;100.00
68594;BME280;55563;52.416;13.548;2023-02-08T04:57:48;103839.06;;;-6.80;100.00
68594;BME280;55563;52.416;13.548;2023-02-08T04:59:48;103848.41;;;-6.79;100.00
68594;BME280;55563;52.416;13.548;2023-02-08T05:01:49;103852.81;;;-6.82;100.00
68594;BME280;55563;52.416;13.548;2023-02-08T05:03:50;103854.34;;;-6.78;100.00
68594;BME280;55563;52.416;13.548;2023-02-08T05:05:58;103846.72;;;-6.80;100.00
68594;BME280;55563;52.416;13.548;2023-02-08T05:07:59;103852.72;;;-6.81;100.00
68594;BME280;55563;52.416;13.548;2023-02-08T05:09:59;103846.19;;;-6.86;100.00
68594;BME280;55563;52.416;13.548;2023-02-08T05:12:00;103852.88;;;-6.84;100.00
68594;BME280;55563;52.416;13.548;2023-02-08T05:14:01;103858.81;;;-6.83;100.00
68594;BME280;55563;52.416;13.548;2023-02-08T05:16:02;103860.69;;;-6.87;100.00
68594;BME280;55563;52.416;13.548;2023-02-08T05:18:03;103858.47;;;-6.76;100.00
68594;BME280;55563;52.416;13.548;2023-02-08T05:20:04;103855.03;;;-6.75;100.00
68594;BME280;55563;52.416;13.548;2023-02-08T05:22:06;103861.03;;;-6.76;100.00
68594;BME280;55563;52.416;13.548;2023-02-08T05:24:06;103858.91;;;-6.66;100.00
68594;BME280;55563;52.416;13.548;2023-02-08T05:26:09;103861.41;;;-6.65;100.00
68594;BME280;55563;52.416;13.548;2023-02-08T05:28:10;103854.97;;;-6.73;100.00
68594;BME280;55563;52.416;13.548;2023-02-08T05:30:11;103859.91;;;-6.69;100.00
68594;BME280;55563;52.416;13.548;2023-02-08T05:32:12;103859.00;;;-6.68;100.00
68594;BME280;55563;52.416;13.548;2023-02-08T05:34:12;103858.22;;;-6.70;100.00
68594;BME280;55563;52.416;13.548;2023-02-08T05:36:13;103864.44;;;-6.75;100.00
68594;BME280;55563;52.416;13.548;2023-02-08T05:38:14;103860.16;;;-6.75;100.00
68594;BME280;55563;52.416;13.548;2023-02-08T05:40:15;103864.63;;;-6.80;100.00
68594;BME280;55563;52.416;13.548;2023-02-08T05:42:15;103855.19;;;-6.78;100.00
68594;BME280;55563;52.416;13.548;2023-02-08T05:44:16;103855.72;;;-6.71;100.00
68594;BME280;55563;52.416;13.548;2023-02-08T05:46:17;103861.13;;;-6.77;100.00
68594;BME280;55563;52.416;13.548;2023-02-08T05:48:18;103857.78;;;-6.79;100.00
68594;BME280;55563;52.416;13.548;2023-02-08T05:50:18;103869.75;;;-6.80;100.00
68594;BME280;55563;52.416;13.548;2023-02-08T05:52:19;103866.03;;;-6.73;100.00
68594;BME280;55563;52.416;13.548;2023-02-08T05:54:20;103858.00;;;-6.84;100.00
68594;BME280;55563;52.416;13.548;2023-02-08T05:56:21;103862.28;;;-6.84;100.00
68594;BME280;55563;52.416;13.548;2023-02-08T05:58:21;103861.25;;;-6.80;100.00
68594;BME280;55563;52.416;13.548;2023-02-08T06:00:22;103866.34;;;-6.80;100.00
68594;BME280;55563;52.416;13.548;2023-02-08T06:02:23;103872.38;;;-6.81;100.00
68594;BME280;55563;52.416;13.548;2023-02-08T06:04:23;103864.53;;;-6.77;100.00
68594;BME280;55563;52.416;13.548;2023-02-08T06:06:24;103868.81;;;-6.77;100.00
68594;BME280;55563;52.416;13.548;2023-02-08T06:08:24;103870.38;;;-6.75;100.00
68594;BME280;55563;52.416;13.548;2023-02-08T06:10:25;103870.38;;;-6.75;100.00
68594;BME280;55563;52.416;13.548;2023-02-08T06:12:26;103869.50;;;-6.74;100.00
68594;BME280;55563;52.416;13.548;2023-02-08T06:14:26;103871.34;;;-6.77;100.00
68594;BME280;55563;52.416;13.548;2023-02-08T06:16:28;103873.13;;;-6.79;100.00
68594;BME280;55563;52.416;13.548;2023-02-08T06:18:29;103875.13;;;-6.86;100.00
68594;BME280;55563;52.416;13.548;2023-02-08T06:20:29;103871.75;;;-6.86;100.00
68594;BME280;55563;52.416;13.548;2023-02-08T06:22:30;103878.63;;;-6.88;100.00
68594;BME280;55563;52.416;13.548;2023-02-08T06:24:33;103878.69;;;-6.90;100.00
68594;BME280;55563;52.416;13.548;2023-02-08T06:26:33;103887.19;;;-6.89;100.00
68594;BME280;55563;52.416;13.548;2023-02-08T06:28:34;103882.28;;;-6.94;100.00
68594;BME280;55563;52.416;13.548;2023-02-08T06:30:35;103888.19;;;-6.92;100.00
68594;BME280;55563;52.416;13.548;2023-02-08T06:32:36;103882.22;;;-6.92;100.00
68594;BME280;55563;52.416;13.548;2023-02-08T06:34:37;103885.28;;;-6.84;100.00
68594;BME280;55563;52.416;13.548;2023-02-08T06:36:38;103885.16;;;-6.81;100.00
68594;BME280;55563;52.416;13.548;2023-02-08T06:38:38;103892.75;;;-6.80;100.00
68594;BME280;55563;52.416;13.548;2023-02-08T06:40:39;103890.19;;;-6.80;100.00
68594;BME280;55563;52.416;13.548;2023-02-08T06:42:40;103891.81;;;-6.77;100.00
68594;BME280;55563;52.416;13.548;2023-02-08T06:44:42;103902.16;;;-6.80;100.00
68594;BME280;55563;52.416;13.548;2023-02-08T06:46:42;103905.47;;;-6.78;100.00
68594;BME280;55563;52.416;13.548;2023-02-08T06:48:43;103900.31;;;-6.77;100.00
68594;BME280;55563;52.416;13.548;2023-02-08T06:50:44;103901.75;;;-6.71;100.00
68594;BME280;55563;52.416;13.548;2023-02-08T06:52:44;103904.00;;;-6.64;100.00
68594;BME280;55563;52.416;13.548;2023-02-08T06:54:45;103900.34;;;-6.58;100.00
68594;BME280;55563;52.416;13.548;2023-02-08T06:56:45;103902.56;;;-6.50;100.00
68594;BME280;55563;52.416;13.548;2023-02-08T06:58:46;103904.94;;;-6.46;100.00
68594;BME280;55563;52.416;13.548;2023-02-08T07:00:47;103908.94;;;-6.40;100.00
68594;BME280;55563;52.416;13.548;2023-02-08T07:02:47;103899.69;;;-6.43;100.00
68594;BME280;55563;52.416;13.548;2023-02-08T07:04:49;103898.03;;;-6.44;100.00
68594;BME280;55563;52.416;13.548;2023-02-08T07:06:50;103903.47;;;-6.33;100.00
68594;BME280;55563;52.416;13.548;2023-02-08T07:08:51;103902.38;;;-6.27;100.00
68594;BME280;55563;52.416;13.548;2023-02-08T07:10:52;103902.28;;;-6.24;100.00
68594;BME280;55563;52.416;13.548;2023-02-08T07:12:52;103902.31;;;-6.26;100.00
68594;BME280;55563;52.416;13.548;2023-02-08T07:14:53;103900.44;;;-6.22;100.00
68594;BME280;55563;52.416;13.548;2023-02-08T07:16:53;103895.91;;;-6.15;100.00
68594;BME280;55563;52.416;13.548;2023-02-08T07:18:54;103895.47;;;-6.06;100.00
68594;BME280;55563;52.416;13.548;2023-02-08T07:20:54;103897.97;;;-6.05;100.00
68594;BME280;55563;52.416;13.548;2023-02-08T07:22:55;103898.88;;;-6.06;100.00
68594;BME280;55563;52.416;13.548;2023-02-08T07:24:56;103892.09;;;-6.07;100.00
68594;BME280;55563;52.416;13.548;2023-02-08T07:26:56;103887.84;;;-6.08;100.00
68594;BME280;55563;52.416;13.548;2023-02-08T07:28:57;103885.19;;;-6.05;100.00
68594;BME280;55563;52.416;13.548;2023-02-08T07:30:58;103883.94;;;-5.96;100.00
68594;BME280;55563;52.416;13.548;2023-02-08T07:32:59;103882.88;;;-5.92;100.00
68594;BME280;55563;52.416;13.548;2023-02-08T07:34:59;103877.69;;;-5.91;100.00
68594;BME280;55563;52.416;13.548;2023-02-08T07:37:00;103879.13;;;-5.85;100.00
68594;BME280;55563;52.416;13.548;2023-02-08T07:39:00;103873.25;;;-5.70;100.00
68594;BME280;55563;52.416;13.548;2023-02-08T07:41:03;103869.50;;;-5.63;100.00
68594;BME280;55563;52.416;13.548;2023-02-08T07:43:04;103866.78;;;-5.08;100.00
68594;BME280;55563;52.416;13.548;2023-02-08T07:45:15;103868.75;;;-4.46;100.00
68594;BME280;55563;52.416;13.548;2023-02-08T07:47:16;103875.56;;;-4.62;100.00
68594;BME280;55563;52.416;13.548;2023-02-08T07:49:16;103874.25;;;-4.87;100.00
68594;BME280;55563;52.416;13.548;2023-02-08T07:51:17;103869.19;;;-4.88;100.00
68594;BME280;55563;52.416;13.548;2023-02-08T07:53:18;103877.88;;;-4.91;100.00
68594;BME280;55563;52.416;13.548;2023-02-08T07:55:19;103883.03;;;-4.91;100.00
68594;BME280;55563;52.416;13.548;2023-02-08T07:57:20;103889.66;;;-4.87;100.00
68594;BME280;55563;52.416;13.548;2023-02-08T07:59:22;103892.81;;;-4.81;100.00
68594;BME280;55563;52.416;13.548;2023-02-08T08:01:22;103896.34;;;-4.84;100.00
68594;BME280;55563;52.416;13.548;2023-02-08T08:03:23;103898.69;;;-4.79;100.00
68594;BME280;55563;52.416;13.548;2023-02-08T08:05:24;103895.97;;;-4.76;100.00
68594;BME280;55563;52.416;13.548;2023-02-08T08:07:24;103892.41;;;-4.74;100.00
68594;BME280;55563;52.416;13.548;2023-02-08T08:09:25;103902.31;;;-4.51;100.00
68594;BME280;55563;52.416;13.548;2023-02-08T08:11:26;103901.63;;;-4.21;100.00
68594;BME280;55563;52.416;13.548;2023-02-08T08:13:26;103902.25;;;-3.85;100.00
68594;BME280;55563;52.416;13.548;2023-02-08T08:15:27;103907.44;;;-3.86;100.00
68594;BME280;55563;52.416;13.548;2023-02-08T08:17:27;103910.59;;;-4.13;100.00
68594;BME280;55563;52.416;13.548;2023-02-08T08:19:28;103915.38;;;-4.07;100.00
68594;BME280;55563;52.416;13.548;2023-02-08T08:21:28;103920.28;;;-4.02;100.00
68594;BME280;55563;52.416;13.548;2023-02-08T08:23:29;103920.13;;;-3.99;100.00
68594;BME280;55563;52.416;13.548;2023-02-08T08:25:32;103916.31;;;-4.08;100.00
68594;BME280;55563;52.416;13.548;2023-02-08T08:27:33;103920.53;;;-4.07;100.00
68594;BME280;55563;52.416;13.548;2023-02-08T08:29:35;103916.16;;;-4.05;100.00
68594;BME280;55563;52.416;13.548;2023-02-08T08:31:36;103915.22;;;-3.72;100.00
68594;BME280;55563;52.416;13.548;2023-02-08T08:33:37;103924.44;;;-3.84;100.00
68594;BME280;55563;52.416;13.548;2023-02-08T08:35:39;103927.56;;;-3.79;100.00
68594;BME280;55563;52.416;13.548;2023-02-08T08:37:40;103931.97;;;-3.81;100.00
68594;BME280;55563;52.416;13.548;2023-02-08T08:39:40;103924.69;;;-3.73;100.00
68594;BME280;55563;52.416;13.548;2023-02-08T08:41:41;103923.25;;;-3.63;100.00
68594;BME280;55563;52.416;13.548;2023-02-08T08:43:42;103910.56;;;-3.50;100.00
68594;BME280;55563;52.416;13.548;2023-02-08T08:45:42;103925.19;;;-3.50;100.00
68594;BME280;55563;52.416;13.548;2023-02-08T08:47:43;103908.41;;;-3.42;100.00
68594;BME280;55563;52.416;13.548;2023-02-08T08:49:44;103907.34;;;-3.24;100.00
68594;BME280;55563;52.416;13.548;2023-02-08T08:51:44;103906.44;;;-3.23;100.00
68594;BME280;55563;52.416;13.548;2023-02-08T08:53:45;103910.94;;;-3.26;100.00
68594;BME280;55563;52.416;13.548;2023-02-08T08:55:46;103911.88;;;-3.13;100.00
68594;BME280;55563;52.416;13.548;2023-02-08T08:57:46;103901.00;;;-3.02;100.00
68594;BME280;55563;52.416;13.548;2023-02-08T08:59:47;103897.88;;;-2.93;100.00
68594;BME280;55563;52.416;13.548;2023-02-08T09:01:47;103899.38;;;-2.75;100.00
68594;BME280;55563;52.416;13.548;2023-02-08T09:03:48;103896.97;;;-2.78;100.00
68594;BME280;55563;52.416;13.548;2023-02-08T09:05:49;103893.31;;;-2.74;100.00
68594;BME280;55563;52.416;13.548;2023-02-08T09:07:49;103895.34;;;-2.65;100.00
68594;BME280;55563;52.416;13.548;2023-02-08T09:09:50;103889.97;;;-2.76;100.00
68594;BME280;55563;52.416;13.548;2023-02-08T09:11:51;103885.59;;;-2.60;100.00
68594;BME280;55563;52.416;13.548;2023-02-08T09:13:52;103887.78;;;-2.54;100.00
68594;BME280;55563;52.416;13.548;2023-02-08T09:15:55;103889.06;;;-2.47;100.00
68594;BME280;55563;52.416;13.548;2023-02-08T09:17:57;103878.41;;;-2.41;100.00
68594;BME280;55563;52.416;13.548;2023-02-08T09:19:57;103882.88;;;-2.30;100.00
68594;BME280;55563;52.416;13.548;2023-02-08T09:21:58;103879.50;;;-2.31;100.00
68594;BME280;55563;52.416;13.548;2023-02-08T09:24:00;103883.63;;;-2.42;100.00
68594;BME280;55563;52.416;13.548;2023-02-08T09:26:02;103891.91;;;-2.37;100.00
68594;BME280;55563;52.416;13.548;2023-02-08T09:28:04;103894.56;;;-2.25;100.00
68594;BME280;55563;52.416;13.548;2023-02-08T09:30:04;103895.25;;;-2.35;100.00
68594;BME280;55563;52.416;13.548;2023-02-08T09:32:05;103896.69;;;-2.31;100.00
68594;BME280;55563;52.416;13.548;2023-02-08T09:34:07;103900.28;;;-2.34;100.00
68594;BME280;55563;52.416;13.548;2023-02-08T09:36:08;103902.00;;;-2.20;100.00
68594;BME280;55563;52.416;13.548;2023-02-08T09:38:09;103907.00;;;-2.17;100.00
68594;BME280;55563;52.416;13.548;2023-02-08T09:40:22;103895.03;;;-2.18;100.00
68594;BME280;55563;52.416;13.548;2023-02-08T09:42:43;103897.97;;;-2.24;100.00
68594;BME280;55563;52.416;13.548;2023-02-08T09:45:38;103903.28;;;-2.13;100.00
68594;BME280;55563;52.416;13.548;2023-02-08T09:49:58;103898.41;;;-2.03;100.00
68594;BME280;55563;52.416;13.548;2023-02-08T09:52:10;103899.56;;;-1.95;100.00
68594;BME280;55563;52.416;13.548;2023-02-08T09:54:21;103895.34;;;-1.96;100.00
68594;BME280;55563;52.416;13.548;2023-02-08T09:56:29;103894.97;;;-1.90;100.00
68594;BME280;55563;52.416;13.548;2023-02-08T09:58:37;103888.31;;;-1.80;100.00
68594;BME280;55563;52.416;13.548;2023-02-08T10:00:42;103880.56;;;-1.80;100.00
68594;BME280;55563;52.416;13.548;2023-02-08T10:02:46;103890.50;;;-1.73;100.00
68594;BME280;55563;52.416;13.548;2023-02-08T10:07:16;103863.91;;;-1.61;100.00
68594;BME280;55563;52.416;13.548;2023-02-08T10:09:21;103862.25;;;-1.62;100.00
68594;BME280;55563;52.416;13.548;2023-02-08T10:12:03;103861.00;;;-1.69;100.00
68594;BME280;55563;52.416;13.548;2023-02-08T10:14:46;103866.19;;;-1.57;100.00
68594;BME280;55563;52.416;13.548;2023-02-08T10:19:13;103860.88;;;-1.28;100.00
68594;BME280;55563;52.416;13.548;2023-02-08T10:24:15;103854.00;;;-1.03;100.00
68594;BME280;55563;52.416;13.548;2023-02-08T10:29:25;103850.38;;;-0.75;100.00
68594;BME280;55563;52.416;13.548;2023-02-08T10:31:21;103853.19;;;-0.78;100.00
68594;BME280;55563;52.416;13.548;2023-02-08T10:33:36;103850.97;;;-0.71;100.00
68594;BME280;55563;52.416;13.548;2023-02-08T10:35:44;103852.00;;;-0.61;100.00
68594;BME280;55563;52.416;13.548;2023-02-08T10:37:46;103843.25;;;-0.59;100.00
68594;BME280;55563;52.416;13.548;2023-02-08T10:39:48;103846.22;;;-0.65;100.00
68594;BME280;55563;52.416;13.548;2023-02-08T10:41:50;103845.59;;;-0.56;100.00
68594;BME280;55563;52.416;13.548;2023-02-08T10:44:01;103838.53;;;-0.41;100.00
68594;BME280;55563;52.416;13.548;2023-02-08T10:46:42;103831.56;;;-0.28;100.00
68594;BME280;55563;52.416;13.548;2023-02-08T10:51:14;103828.06;;;-0.27;100.00
68594;BME280;55563;52.416;13.548;2023-02-08T10:53:16;103832.25;;;-0.13;100.00
68594;BME280;55563;52.416;13.548;2023-02-08T10:55:19;103824.13;;;-0.20;100.00
68594;BME280;55563;52.416;13.548;2023-02-08T10:57:23;103822.81;;;-0.38;100.00
68594;BME280;55563;52.416;13.548;2023-02-08T10:59:36;103816.41;;;-0.09;100.00
68594;BME280;55563;52.416;13.548;2023-02-08T11:01:39;103812.94;;;0.27;100.00
68594;BME280;55563;52.416;13.548;2023-02-08T11:03:59;103817.75;;;0.32;100.00
68594;BME280;55563;52.416;13.548;2023-02-08T11:06:00;103815.25;;;-0.05;100.00
68594;BME280;55563;52.416;13.548;2023-02-08T11:08:09;103814.63;;;0.16;100.00
68594;BME280;55563;52.416;13.548;2023-02-08T11:12:29;103800.00;;;0.27;100.00
68594;BME280;55563;52.416;13.548;2023-02-08T11:14:38;103803.84;;;0.22;100.00
68594;BME280;55563;52.416;13.548;2023-02-08T11:16:39;103798.25;;;0.28;100.00
68594;BME280;55563;52.416;13.548;2023-02-08T11:18:51;103793.16;;;0.26;100.00
68594;BME280;55563;52.416;13.548;2023-02-08T11:20:55;103797.31;;;0.40;100.00
68594;BME280;55563;52.416;13.548;2023-02-08T11:22:57;103794.69;;;0.75;100.00